Time;durP1;ratioP1;P1;durP2;ratioP2;P2;SDS_P1;SDS_P2;PMS_P1;PMS_P2;Temp;Humidity;BMP_temperature;BMP_pressure;BME280_temperature;BME280_humidity;BME280_pressure;Samples;Min_cycle;Max_cycle;Signal;HPM_P1;HPM_P2
2023/10/30 00:01:36;;;;;;;5.10;2.22;;;;;;;;;;5031816;28;20402;-77
2023/10/30 00:04:01;;;;;;;5.63;2.63;;;;;;;;;;5033314;28;20465;-76
2023/10/30 00:06:26;;;;;;;2.97;2.17;;;;;;;;;;5033364;28;20343;-77
2023/10/30 00:08:52;;;;;;;2.53;2.28;;;;;;;;;;5033874;28;20056;-77
2023/10/30 00:11:17;;;;;;;2.35;2.15;;;;;;;;;;5031065;28;20607;-76
2023/10/30 00:13:42;;;;;;;7.40;2.22;;;;;;;;;;5031614;28;20045;-76
2023/10/30 00:16:11;;;;;;;2.72;2.38;;;;;;;;;;5032727;28;20053;-77
2023/10/30 00:18:38;;;;;;;2.38;2.15;;;;;;;;;;5029907;28;20425;-77
2023/10/30 00:21:04;;;;;;;3.90;2.45;;;;;;;;;;5031815;28;20240;-77
2023/10/30 00:23:30;;;;;;;4.28;3.25;;;;;;;;;;5033738;28;20100;-77
2023/10/30 00:25:55;;;;;;;3.80;2.53;;;;;;;;;;5031234;28;20037;-77
2023/10/30 00:28:20;;;;;;;5.20;2.38;;;;;;;;;;5031412;28;20389;-77
2023/10/30 00:30:46;;;;;;;3.13;2.78;;;;;;;;;;5030488;28;20366;-77
2023/10/30 00:33:11;;;;;;;5.38;2.90;;;;;;;;;;5032628;28;20432;-78
2023/10/30 00:35:36;;;;;;;4.82;2.28;;;;;;;;;;5033726;28;20036;-77
2023/10/30 00:38:01;;;;;;;1.83;1.73;;;;;;;;;;5032032;28;20038;-77
2023/10/30 00:40:27;;;;;;;3.95;2.10;;;;;;;;;;5032574;28;20527;-77
2023/10/30 00:42:52;;;;;;;1.83;1.70;;;;;;;;;;5031057;28;20033;-76
2023/10/30 00:45:17;;;;;;;6.40;2.17;;;;;;;;;;5032879;28;20047;-77
2023/10/30 00:47:43;;;;;;;4.10;2.53;;;;;;;;;;5032793;28;20074;-78
2023/10/30 00:50:08;;;;;;;3.03;1.95;;;;;;;;;;5030881;28;20033;-77
2023/10/30 00:52:34;;;;;;;4.10;2.15;;;;;;;;;;5031915;28;20037;-78
2023/10/30 00:54:59;;;;;;;3.58;2.33;;;;;;;;;;5032379;28;20195;-76
2023/10/30 00:57:25;;;;;;;3.22;1.90;;;;;;;;;;5032309;28;20129;-77
2023/10/30 00:59:50;;;;;;;5.22;2.10;;;;;;;;;;5031911;28;20029;-76
2023/10/30 01:02:15;;;;;;;4.57;2.60;;;;;;;;;;5030258;28;20033;-77
2023/10/30 01:04:41;;;;;;;5.65;2.78;;;;;;;;;;5031605;28;20521;-77
2023/10/30 01:07:07;;;;;;;4.03;2.78;;;;;;;;;;5031203;28;20044;-77
2023/10/30 01:09:33;;;;;;;4.15;3.05;;;;;;;;;;5031755;28;20163;-76
2023/10/30 01:11:58;;;;;;;3.15;2.58;;;;;;;;;;5032440;28;20533;-78
2023/10/30 01:14:23;;;;;;;6.03;2.78;;;;;;;;;;5030191;28;20042;-77
2023/10/30 01:16:49;;;;;;;3.03;2.60;;;;;;;;;;5031715;28;20041;-77
2023/10/30 01:19:15;;;;;;;7.85;2.85;;;;;;;;;;5030195;28;20060;-77
2023/10/30 01:21:40;;;;;;;2.70;2.40;;;;;;;;;;5032369;28;20041;-79
2023/10/30 01:24:06;;;;;;;7.93;2.00;;;;;;;;;;5032114;28;20075;-77
2023/10/30 01:26:31;;;;;;;2.33;1.90;;;;;;;;;;5031202;28;20029;-76
2023/10/30 01:28:56;;;;;;;3.45;1.90;;;;;;;;;;5031402;28;20112;-78
2023/10/30 01:31:27;;;;;;;5.28;2.10;;;;;;;;;;5031654;28;20053;-77
2023/10/30 01:33:53;;;;;;;2.10;2.00;;;;;;;;;;5031849;28;20106;-77
2023/10/30 01:36:18;;;;;;;1.92;1.80;;;;;;;;;;5031200;28;20033;-76
2023/10/30 01:38:43;;;;;;;2.72;2.13;;;;;;;;;;5031272;28;20025;-76
2023/10/30 01:41:08;;;;;;;3.03;2.20;;;;;;;;;;5030441;28;20617;-77
2023/10/30 01:43:34;;;;;;;5.18;3.05;;;;;;;;;;5030971;28;20045;-77
2023/10/30 01:46:00;;;;;;;2.53;2.15;;;;;;;;;;5030079;28;20124;-79
2023/10/30 01:48:28;;;;;;;7.85;2.30;;;;;;;;;;5029406;28;20084;-77
2023/10/30 01:50:53;;;;;;;3.58;2.20;;;;;;;;;;5031542;28;20079;-77
2023/10/30 01:53:20;;;;;;;9.23;2.40;;;;;;;;;;5031132;28;20033;-78
2023/10/30 01:55:46;;;;;;;3.75;2.38;;;;;;;;;;5032208;28;20087;-80
2023/10/30 01:58:11;;;;;;;2.03;1.83;;;;;;;;;;5029866;28;20046;-76
2023/10/30 02:00:38;;;;;;;2.13;1.83;;;;;;;;;;5029704;28;20064;-77
2023/10/30 02:03:04;;;;;;;4.55;2.58;;;;;;;;;;5029796;28;20550;-77
2023/10/30 02:05:29;;;;;;;2.20;2.00;;;;;;;;;;5032417;28;20032;-79
2023/10/30 02:07:55;;;;;;;5.65;2.05;;;;;;;;;;5033124;28;20505;-77
2023/10/30 02:10:20;;;;;;;3.38;2.60;;;;;;;;;;5033228;28;20053;-80
2023/10/30 02:12:50;;;;;;;3.97;2.30;;;;;;;;;;5034750;28;20041;-79
2023/10/30 02:15:15;;;;;;;4.85;2.35;;;;;;;;;;5036100;28;20026;-79
2023/10/30 02:17:40;;;;;;;3.92;2.25;;;;;;;;;;5036393;28;20036;-78
2023/10/30 02:20:06;;;;;;;3.15;2.65;;;;;;;;;;5033454;28;20041;-77
2023/10/30 02:22:31;;;;;;;3.47;2.58;;;;;;;;;;5033631;28;20603;-79
2023/10/30 02:24:57;;;;;;;4.70;2.63;;;;;;;;;;5036782;28;20257;-76
2023/10/30 02:27:23;;;;;;;2.85;2.47;;;;;;;;;;5036597;28;20037;-78
2023/10/30 02:29:48;;;;;;;4.07;2.65;;;;;;;;;;5036413;28;20055;-78
2023/10/30 02:32:13;;;;;;;2.83;2.20;;;;;;;;;;5037312;28;20034;-78
2023/10/30 02:34:39;;;;;;;2.63;2.42;;;;;;;;;;5037139;28;20131;-79
2023/10/30 02:37:05;;;;;;;2.78;2.15;;;;;;;;;;5035231;28;20045;-79
2023/10/30 02:39:32;;;;;;;7.53;2.30;;;;;;;;;;5035768;28;20040;-79
2023/10/30 02:41:59;;;;;;;3.40;2.20;;;;;;;;;;5036265;28;20029;-78
2023/10/30 02:44:25;;;;;;;5.65;2.38;;;;;;;;;;5035325;28;20029;-79
2023/10/30 02:46:50;;;;;;;4.97;2.60;;;;;;;;;;5035962;28;20037;-78
2023/10/30 02:49:16;;;;;;;2.40;2.20;;;;;;;;;;5034562;28;20045;-79
2023/10/30 02:51:41;;;;;;;2.50;2.28;;;;;;;;;;5036722;28;20048;-78
2023/10/30 02:54:06;;;;;;;3.95;2.65;;;;;;;;;;5036036;28;20048;-79
2023/10/30 02:56:32;;;;;;;2.97;2.40;;;;;;;;;;5037906;28;20025;-77
2023/10/30 02:58:59;;;;;;;4.05;2.53;;;;;;;;;;5040892;28;20029;-77
2023/10/30 03:01:24;;;;;;;8.45;2.90;;;;;;;;;;5039644;28;20068;-78
2023/10/30 03:03:50;;;;;;;8.93;2.60;;;;;;;;;;5038138;28;20034;-79
2023/10/30 03:06:15;;;;;;;3.60;2.80;;;;;;;;;;5039684;28;20021;-79
2023/10/30 03:08:40;;;;;;;6.15;2.83;;;;;;;;;;5039998;28;20029;-79
2023/10/30 03:11:07;;;;;;;6.18;3.25;;;;;;;;;;5037491;28;20069;-78
2023/10/30 03:13:32;;;;;;;5.32;2.63;;;;;;;;;;5038693;28;20047;-79
2023/10/30 03:15:57;;;;;;;4.60;2.70;;;;;;;;;;5039304;28;20030;-78
2023/10/30 03:18:22;;;;;;;8.32;2.75;;;;;;;;;;5038886;28;20523;-79
2023/10/30 03:20:48;;;;;;;8.23;3.08;;;;;;;;;;5038504;28;20029;-79
2023/10/30 03:23:13;;;;;;;3.10;2.10;;;;;;;;;;5039351;28;20037;-79
2023/10/30 03:25:39;;;;;;;8.65;4.00;;;;;;;;;;5039126;28;20525;-79
2023/10/30 03:28:04;;;;;;;4.15;3.28;;;;;;;;;;5038333;28;20524;-77
2023/10/30 03:30:29;;;;;;;3.63;3.33;;;;;;;;;;5038381;28;20581;-79
2023/10/30 03:32:54;;;;;;;4.88;3.25;;;;;;;;;;5039379;28;20040;-76
2023/10/30 03:35:20;;;;;;;11.48;3.58;;;;;;;;;;5036243;28;20514;-78
2023/10/30 03:37:45;;;;;;;6.53;3.22;;;;;;;;;;5037707;28;20087;-77
2023/10/30 03:40:12;;;;;;;4.18;2.97;;;;;;;;;;5037719;28;20087;-78
2023/10/30 03:42:37;;;;;;;2.22;2.00;;;;;;;;;;5037015;28;20033;-78
2023/10/30 03:45:03;;;;;;;3.75;2.65;;;;;;;;;;5037751;28;20029;-78
2023/10/30 03:47:28;;;;;;;3.42;2.78;;;;;;;;;;5037497;28;20044;-79
2023/10/30 03:49:53;;;;;;;2.10;1.90;;;;;;;;;;5037400;28;20034;-78
2023/10/30 03:52:19;;;;;;;6.78;2.72;;;;;;;;;;5038066;28;20521;-78
2023/10/30 03:54:44;;;;;;;3.10;2.75;;;;;;;;;;5036551;28;20026;-79
2023/10/30 03:57:10;;;;;;;2.13;2.00;;;;;;;;;;5047990;28;20029;-79
2023/10/30 03:59:35;;;;;;;4.85;2.15;;;;;;;;;;5056691;28;20041;-78
2023/10/30 04:02:01;;;;;;;3.72;2.50;;;;;;;;;;5055393;28;20043;-78
2023/10/30 04:04:26;;;;;;;4.20;2.72;;;;;;;;;;5055668;28;20124;-79
2023/10/30 04:06:51;;;;;;;4.25;2.75;;;;;;;;;;5056406;28;20071;-76
2023/10/30 04:09:17;;;;;;;2.80;2.55;;;;;;;;;;5057926;28;20020;-78
2023/10/30 04:11:46;;;;;;;2.80;2.60;;;;;;;;;;5057762;28;20252;-78
2023/10/30 04:14:11;;;;;;;3.35;2.67;;;;;;;;;;5055799;28;20048;-77
2023/10/30 04:16:36;;;;;;;2.35;2.20;;;;;;;;;;5055951;28;20036;-79
2023/10/30 04:21:29;;;;;;;9.13;2.65;;;;;;;;;;5032070;28;20324;-77
2023/10/30 04:23:55;;;;;;;3.90;2.22;;;;;;;;;;5036679;28;20025;-78
2023/10/30 04:26:20;;;;;;;3.88;2.50;;;;;;;;;;5035967;28;20519;-79
2023/10/30 04:28:46;;;;;;;7.40;2.22;;;;;;;;;;5035746;28;20029;-79
2023/10/30 04:31:11;;;;;;;3.13;2.22;;;;;;;;;;5035834;28;20025;-78
2023/10/30 04:33:36;;;;;;;2.58;2.20;;;;;;;;;;5035685;28;20061;-78
2023/10/30 04:36:03;;;;;;;5.15;2.25;;;;;;;;;;5036073;28;20021;-81
2023/10/30 04:38:33;;;;;;;3.97;2.33;;;;;;;;;;5017636;28;20453;-78
2023/10/30 04:41:03;;;;;;;6.05;2.28;;;;;;;;;;5035185;28;20320;-79
2023/10/30 04:43:28;;;;;;;4.78;3.00;;;;;;;;;;5034964;28;20048;-80
2023/10/30 04:45:53;;;;;;;4.15;2.70;;;;;;;;;;5035622;28;20033;-79
2023/10/30 04:48:19;;;;;;;5.50;2.70;;;;;;;;;;5031870;28;20021;-80
2023/10/30 04:50:44;;;;;;;3.95;3.22;;;;;;;;;;5026498;28;20045;-79
2023/10/30 04:53:09;;;;;;;5.45;2.90;;;;;;;;;;5026274;28;20021;-79
2023/10/30 04:55:34;;;;;;;3.38;2.55;;;;;;;;;;5027676;28;20048;-79
2023/10/30 04:58:00;;;;;;;5.03;2.90;;;;;;;;;;5027895;28;20424;-78
2023/10/30 05:00:25;;;;;;;2.67;2.47;;;;;;;;;;5027357;28;20052;-77
2023/10/30 05:02:51;;;;;;;2.63;2.10;;;;;;;;;;5030708;28;20509;-79
2023/10/30 05:05:16;;;;;;;4.18;3.00;;;;;;;;;;5030288;28;20549;-78
2023/10/30 05:07:44;;;;;;;6.45;2.60;;;;;;;;;;5027039;28;20109;-78
2023/10/30 05:10:09;;;;;;;3.35;2.80;;;;;;;;;;5024591;28;20405;-80
2023/10/30 05:12:35;;;;;;;6.07;3.10;;;;;;;;;;5024537;28;20085;-79
2023/10/30 05:15:00;;;;;;;3.30;2.70;;;;;;;;;;5024909;28;20524;-79
2023/10/30 05:17:25;;;;;;;4.68;3.20;;;;;;;;;;5003946;28;20447;-80
2023/10/30 05:19:51;;;;;;;8.27;3.15;;;;;;;;;;5025660;28;20049;-80
2023/10/30 05:22:16;;;;;;;5.85;3.10;;;;;;;;;;5032342;28;20060;-79
2023/10/30 05:24:41;;;;;;;6.78;3.50;;;;;;;;;;5031214;28;20037;-80
2023/10/30 05:27:06;;;;;;;4.05;3.13;;;;;;;;;;5012841;28;20445;-80
2023/10/30 05:29:32;;;;;;;4.55;2.95;;;;;;;;;;5029463;28;20044;-80
2023/10/30 05:31:57;;;;;;;6.65;2.95;;;;;;;;;;5026525;28;20033;-79
2023/10/30 05:34:26;;;;;;;5.40;3.17;;;;;;;;;;5008274;28;20033;-80
2023/10/30 05:36:51;;;;;;;5.28;3.30;;;;;;;;;;5024517;28;20026;-80
2023/10/30 05:39:16;;;;;;;9.43;3.20;;;;;;;;;;5023929;28;20421;-78
2023/10/30 05:41:42;;;;;;;3.00;2.60;;;;;;;;;;5025585;28;20029;-80
2023/10/30 05:44:07;;;;;;;2.63;2.42;;;;;;;;;;5025848;28;20072;-79
2023/10/30 05:46:32;;;;;;;3.10;2.47;;;;;;;;;;5024988;28;20061;-79
2023/10/30 05:48:58;;;;;;;3.08;2.83;;;;;;;;;;5028543;28;20026;-80
2023/10/30 05:51:23;;;;;;;5.07;3.72;;;;;;;;;;5023394;28;20091;-81
2023/10/30 05:53:50;;;;;;;5.30;3.72;;;;;;;;;;5024803;28;20071;-81
2023/10/30 05:56:16;;;;;;;8.70;4.43;;;;;;;;;;5025715;28;20152;-79
2023/10/30 05:58:41;;;;;;;6.40;4.18;;;;;;;;;;5019740;28;20514;-80
2023/10/30 06:01:06;;;;;;;8.50;4.63;;;;;;;;;;5025875;28;20052;-80
2023/10/30 06:03:31;;;;;;;8.52;4.45;;;;;;;;;;5027226;28;20041;-79
2023/10/30 06:05:57;;;;;;;11.68;5.25;;;;;;;;;;5028777;28;20017;-79
2023/10/30 06:08:23;;;;;;;8.13;4.88;;;;;;;;;;5030044;28;20033;-80
2023/10/30 06:10:49;;;;;;;5.90;4.80;;;;;;;;;;5023821;28;20472;-80
2023/10/30 06:13:15;;;;;;;9.05;4.75;;;;;;;;;;5022040;28;20045;-82
2023/10/30 06:15:41;;;;;;;7.60;4.47;;;;;;;;;;5027621;28;20049;-81
2023/10/30 06:18:06;;;;;;;9.60;4.15;;;;;;;;;;5024663;28;20045;-81
2023/10/30 06:20:32;;;;;;;7.13;4.00;;;;;;;;;;5022386;28;20049;-81
2023/10/30 06:22:57;;;;;;;13.13;4.30;;;;;;;;;;5012166;28;20041;-80
2023/10/30 06:25:23;;;;;;;4.22;3.58;;;;;;;;;;5023253;28;20040;-81
2023/10/30 06:27:49;;;;;;;5.43;3.78;;;;;;;;;;5013727;28;20048;-81
2023/10/30 06:30:14;;;;;;;5.10;3.83;;;;;;;;;;5030571;28;20025;-80
2023/10/30 06:32:40;;;;;;;8.57;3.95;;;;;;;;;;5014906;28;20485;-82
2023/10/30 06:35:07;;;;;;;4.88;3.40;;;;;;;;;;5026909;28;20101;-81
2023/10/30 06:37:32;;;;;;;5.10;4.10;;;;;;;;;;5017078;28;20041;-82
2023/10/30 06:39:58;;;;;;;5.60;3.95;;;;;;;;;;5026950;28;20041;-83
2023/10/30 06:42:23;;;;;;;6.82;4.43;;;;;;;;;;5028618;28;20556;-82
2023/10/30 06:44:49;;;;;;;5.55;4.65;;;;;;;;;;5030680;28;20059;-82
2023/10/30 06:47:15;;;;;;;5.80;3.97;;;;;;;;;;5028245;28;20037;-80
2023/10/30 06:49:40;;;;;;;5.47;3.38;;;;;;;;;;5028451;28;20052;-83
2023/10/30 06:52:06;;;;;;;4.68;3.13;;;;;;;;;;5028789;28;20034;-82
2023/10/30 06:54:31;;;;;;;4.97;3.42;;;;;;;;;;5027013;28;20113;-82
2023/10/30 06:56:57;;;;;;;4.88;2.95;;;;;;;;;;5029325;28;20494;-82
2023/10/30 06:59:23;;;;;;;9.27;3.50;;;;;;;;;;5033558;28;20053;-81
2023/10/30 07:01:48;;;;;;;6.05;3.53;;;;;;;;;;5027009;28;20033;-82
2023/10/30 07:04:15;;;;;;;6.93;2.80;;;;;;;;;;5014050;28;20037;-81
2023/10/30 07:06:42;;;;;;;3.35;2.70;;;;;;;;;;5028876;28;20125;-82
2023/10/30 07:09:08;;;;;;;4.70;2.25;;;;;;;;;;5030250;28;20519;-82
2023/10/30 07:11:35;;;;;;;12.30;2.80;;;;;;;;;;5025807;28;20060;-82
2023/10/30 07:14:02;;;;;;;4.03;2.83;;;;;;;;;;5026766;28;20127;-82
2023/10/30 07:16:31;;;;;;;6.00;3.08;;;;;;;;;;5026875;28;20337;-82
2023/10/30 07:18:57;;;;;;;4.32;3.00;;;;;;;;;;5027499;28;20056;-81
2023/10/30 07:21:23;;;;;;;2.53;2.30;;;;;;;;;;5029806;28;20038;-81
2023/10/30 07:23:48;;;;;;;7.50;2.75;;;;;;;;;;5015059;28;20032;-81
2023/10/30 07:26:14;;;;;;;3.42;2.15;;;;;;;;;;5012365;28;20037;-81
2023/10/30 07:28:39;;;;;;;3.42;2.40;;;;;;;;;;5027110;28;20026;-80
2023/10/30 07:31:04;;;;;;;2.22;2.08;;;;;;;;;;5029456;28;20136;-80
2023/10/30 07:33:30;;;;;;;2.45;2.25;;;;;;;;;;5030302;28;20034;-82
2023/10/30 07:35:55;;;;;;;4.28;2.10;;;;;;;;;;5029881;28;20025;-81
2023/10/30 07:38:21;;;;;;;3.42;2.50;;;;;;;;;;5027432;28;20030;-81
2023/10/30 07:40:46;;;;;;;5.18;2.53;;;;;;;;;;5012931;28;20057;-80
2023/10/30 07:43:11;;;;;;;2.95;2.55;;;;;;;;;;5024916;28;20102;-81
2023/10/30 07:45:41;;;;;;;2.45;2.10;;;;;;;;;;5028787;28;20116;-81
2023/10/30 07:48:06;;;;;;;2.40;2.15;;;;;;;;;;5026083;28;20048;-82
2023/10/30 07:50:32;;;;;;;6.35;2.20;;;;;;;;;;5032803;28;20044;-81
2023/10/30 07:52:57;;;;;;;2.78;2.22;;;;;;;;;;5015104;28;20033;-81
2023/10/30 07:55:23;;;;;;;6.97;2.53;;;;;;;;;;5029586;28;20051;-80
2023/10/30 07:57:49;;;;;;;3.63;2.33;;;;;;;;;;5034098;28;20034;-80
2023/10/30 08:00:15;;;;;;;2.35;2.10;;;;;;;;;;5026786;28;20033;-80
2023/10/30 08:02:40;;;;;;;2.20;2.00;;;;;;;;;;5014698;28;20029;-80
2023/10/30 08:05:06;;;;;;;4.72;2.28;;;;;;;;;;5034307;28;20048;-81
2023/10/30 08:07:32;;;;;;;2.83;2.10;;;;;;;;;;5015595;28;20038;-81
2023/10/30 08:09:57;;;;;;;2.53;1.83;;;;;;;;;;5016985;28;20068;-80
2023/10/30 08:12:23;;;;;;;2.45;2.25;;;;;;;;;;5030538;28;20115;-82
2023/10/30 08:14:48;;;;;;;3.90;2.20;;;;;;;;;;5032800;28;20029;-80
2023/10/30 08:17:14;;;;;;;2.53;2.33;;;;;;;;;;5031669;28;20588;-81
2023/10/30 08:19:39;;;;;;;2.40;2.20;;;;;;;;;;5015223;28;20037;-79
2023/10/30 08:22:04;;;;;;;2.60;2.25;;;;;;;;;;5024569;28;20042;-80
2023/10/30 08:24:30;;;;;;;2.63;2.20;;;;;;;;;;5026669;28;20049;-81
2023/10/30 08:26:55;;;;;;;2.17;2.03;;;;;;;;;;5026875;28;20018;-81
2023/10/30 08:29:20;;;;;;;8.02;2.08;;;;;;;;;;5023035;28;20073;-82
2023/10/30 08:31:46;;;;;;;2.30;2.10;;;;;;;;;;5015373;28;20413;-81
2023/10/30 08:34:11;;;;;;;4.93;2.03;;;;;;;;;;5013344;28;20360;-81
2023/10/30 08:36:36;;;;;;;3.78;2.08;;;;;;;;;;4998571;28;20392;-81
2023/10/30 08:39:03;;;;;;;3.33;1.90;;;;;;;;;;5018993;28;20044;-81
2023/10/30 08:41:28;;;;;;;2.15;1.80;;;;;;;;;;5011942;28;20037;-80
2023/10/30 08:43:53;;;;;;;1.92;1.77;;;;;;;;;;5024457;28;20042;-81
2023/10/30 08:46:19;;;;;;;2.33;1.70;;;;;;;;;;5012736;28;20038;-82
2023/10/30 08:48:44;;;;;;;3.08;1.90;;;;;;;;;;5025130;28;20653;-82
2023/10/30 08:51:10;;;;;;;2.55;1.80;;;;;;;;;;5027818;28;20240;-81
2023/10/30 08:53:35;;;;;;;2.72;1.70;;;;;;;;;;5031231;28;20037;-80
2023/10/30 08:56:00;;;;;;;2.65;1.60;;;;;;;;;;5032226;28;20034;-80
2023/10/30 08:58:26;;;;;;;3.20;1.80;;;;;;;;;;5031390;28;20049;-80
2023/10/30 09:00:51;;;;;;;1.45;1.35;;;;;;;;;;5031961;28;20114;-82
2023/10/30 09:03:16;;;;;;;4.45;1.30;;;;;;;;;;5030269;28;20033;-80
2023/10/30 09:05:42;;;;;;;1.85;1.40;;;;;;;;;;5028618;28;20032;-80
2023/10/30 09:08:07;;;;;;;1.52;1.42;;;;;;;;;;5029347;28;20043;-80
2023/10/30 09:10:34;;;;;;;1.50;1.40;;;;;;;;;;5028594;28;20857;-81
2023/10/30 09:12:59;;;;;;;1.40;1.30;;;;;;;;;;5025774;28;20112;-82
2023/10/30 09:15:24;;;;;;;2.40;1.70;;;;;;;;;;5027280;28;20037;-81
2023/10/30 09:17:50;;;;;;;1.58;1.40;;;;;;;;;;5030387;28;20464;-81
2023/10/30 09:20:16;;;;;;;1.65;1.50;;;;;;;;;;5030059;28;20052;-82
2023/10/30 09:22:41;;;;;;;2.53;1.40;;;;;;;;;;5028056;28;20033;-81
2023/10/30 09:25:07;;;;;;;8.32;1.50;;;;;;;;;;5028459;28;20434;-81
2023/10/30 09:27:32;;;;;;;1.20;1.20;;;;;;;;;;5011890;28;20025;-81
2023/10/30 09:29:58;;;;;;;2.25;1.40;;;;;;;;;;5028116;28;20140;-80
2023/10/30 09:32:23;;;;;;;9.75;1.63;;;;;;;;;;5029476;28;20305;-81
2023/10/30 09:34:49;;;;;;;2.17;1.50;;;;;;;;;;5030681;28;20401;-80
2023/10/30 09:37:14;;;;;;;2.75;1.40;;;;;;;;;;5027477;28;20417;-81
2023/10/30 09:39:40;;;;;;;1.50;1.40;;;;;;;;;;5027008;28;20037;-82
2023/10/30 09:42:07;;;;;;;1.48;1.23;;;;;;;;;;5018789;28;20018;-80
2023/10/30 09:44:33;;;;;;;1.88;1.20;;;;;;;;;;5026709;28;20033;-81
2023/10/30 09:46:59;;;;;;;1.75;1.30;;;;;;;;;;5023399;28;20136;-81
2023/10/30 09:49:28;;;;;;;1.25;1.10;;;;;;;;;;5022072;28;20081;-80
2023/10/30 09:51:55;;;;;;;1.30;1.20;;;;;;;;;;5021332;28;20120;-80
2023/10/30 09:54:20;;;;;;;7.25;1.70;;;;;;;;;;5010772;28;20388;-80
2023/10/30 09:56:45;;;;;;;1.40;1.17;;;;;;;;;;5025979;28;20077;-81
2023/10/30 09:59:13;;;;;;;3.97;1.73;;;;;;;;;;5023245;28;20049;-81
2023/10/30 10:01:41;;;;;;;1.20;1.10;;;;;;;;;;5027079;28;20142;-81
2023/10/30 10:04:06;;;;;;;3.08;1.58;;;;;;;;;;5028461;28;20068;-81
2023/10/30 10:06:31;;;;;;;1.58;1.30;;;;;;;;;;5025575;28;20064;-81
2023/10/30 10:08:57;;;;;;;3.38;1.73;;;;;;;;;;5028840;28;20017;-80
2023/10/30 10:11:30;;;;;;;2.88;1.45;;;;;;;;;;5027854;28;20121;-80
2023/10/30 10:13:56;;;;;;;1.42;1.33;;;;;;;;;;5027666;28;20041;-81
2023/10/30 10:16:30;;;;;;;1.38;1.25;;;;;;;;;;5027312;28;20068;-80
2023/10/30 10:18:55;;;;;;;3.20;1.60;;;;;;;;;;5026725;28;20060;-82
2023/10/30 10:21:22;;;;;;;1.75;1.48;;;;;;;;;;5020541;23;20293;-74
2023/10/30 10:23:47;;;;;;;2.88;1.48;;;;;;;;;;5003297;28;20627;-74
2023/10/30 10:26:16;;;;;;;1.75;1.52;;;;;;;;;;5000184;28;20038;-74
2023/10/30 10:28:51;;;;;;;4.68;1.58;;;;;;;;;;4990798;28;20041;-74
2023/10/30 10:31:31;;;;;;;3.67;1.48;;;;;;;;;;4996070;28;20045;-74
2023/10/30 10:33:57;;;;;;;1.95;1.50;;;;;;;;;;5016228;28;20038;-74
2023/10/30 10:36:30;;;;;;;1.55;1.45;;;;;;;;;;4999665;28;20052;-74
2023/10/30 10:38:57;;;;;;;1.60;1.10;;;;;;;;;;4991463;28;20015;-74
2023/10/30 10:41:25;;;;;;;1.52;1.42;;;;;;;;;;4991825;28;20053;-74
2023/10/30 10:43:52;;;;;;;1.40;1.30;;;;;;;;;;4994908;28;20144;-74
2023/10/30 10:46:17;;;;;;;1.20;1.20;;;;;;;;;;5016385;28;20041;-74
2023/10/30 10:48:43;;;;;;;4.07;1.25;;;;;;;;;;5012447;28;21373;-74
2023/10/30 10:51:10;;;;;;;1.73;1.30;;;;;;;;;;4995676;28;20034;-74
2023/10/30 10:53:37;;;;;;;5.72;1.40;;;;;;;;;;4998656;28;20046;-74
2023/10/30 10:56:06;;;;;;;1.50;1.40;;;;;;;;;;4998526;28;20523;-76
2023/10/30 10:58:40;;;;;;;2.47;1.40;;;;;;;;;;4981166;28;20571;-75
2023/10/30 11:01:16;;;;;;;1.30;1.20;;;;;;;;;;4995305;28;20046;-74
2023/10/30 11:03:43;;;;;;;3.37;1.50;;;;;;;;;;5018817;28;21041;-75
2023/10/30 11:06:13;;;;;;;3.83;1.50;;;;;;;;;;5019241;28;20290;-75
2023/10/30 11:08:45;;;;;;;1.67;1.38;;;;;;;;;;5019669;28;20108;-75
2023/10/30 11:11:32;;;;;;;1.52;1.42;;;;;;;;;;4988888;28;20048;-75
2023/10/30 11:14:35;;;;;;;4.55;1.30;;;;;;;;;;4997655;28;20050;-75
2023/10/30 11:17:05;;;;;;;2.50;1.65;;;;;;;;;;5017735;28;20146;-75
2023/10/30 11:19:32;;;;;;;4.25;2.33;;;;;;;;;;5023522;28;20038;-75
2023/10/30 11:22:01;;;;;;;2.47;2.17;;;;;;;;;;5019393;28;20083;-75
2023/10/30 11:24:42;;;;;;;2.05;1.20;;;;;;;;;;5022447;28;20083;-75
2023/10/30 11:27:25;;;;;;;1.33;1.02;;;;;;;;;;5020018;28;20108;-75
2023/10/30 11:30:04;;;;;;;1.10;1.10;;;;;;;;;;5023461;28;20087;-75
2023/10/30 11:32:31;;;;;;;2.38;1.20;;;;;;;;;;5001021;28;20061;-75
2023/10/30 11:34:57;;;;;;;3.10;1.10;;;;;;;;;;5021517;28;20041;-75
2023/10/30 11:37:22;;;;;;;1.10;1.10;;;;;;;;;;5023408;28;20033;-75
2023/10/30 11:39:49;;;;;;;1.52;0.98;;;;;;;;;;5003361;28;20397;-75
2023/10/30 11:42:24;;;;;;;1.48;1.13;;;;;;;;;;5019979;28;20069;-75
2023/10/30 11:44:50;;;;;;;3.22;1.13;;;;;;;;;;5022102;28;20100;-75
2023/10/30 11:47:18;;;;;;;1.00;1.00;;;;;;;;;;5017521;28;20050;-75
2023/10/30 11:49:47;;;;;;;1.20;1.10;;;;;;;;;;5019521;28;20332;-76
2023/10/30 11:52:13;;;;;;;2.70;1.48;;;;;;;;;;5006809;28;20095;-75
2023/10/30 11:54:40;;;;;;;1.30;1.20;;;;;;;;;;5018000;28;20046;-75
2023/10/30 11:57:06;;;;;;;2.70;1.23;;;;;;;;;;5004236;28;20100;-75
2023/10/30 11:59:32;;;;;;;1.77;1.20;;;;;;;;;;5016382;28;20022;-75
2023/10/30 12:01:58;;;;;;;1.30;1.13;;;;;;;;;;5002052;28;20029;-75
2023/10/30 12:04:26;;;;;;;2.35;1.30;;;;;;;;;;4991159;28;20042;-75
2023/10/30 12:06:52;;;;;;;3.25;1.80;;;;;;;;;;5001491;28;20041;-75
2023/10/30 12:09:18;;;;;;;1.45;1.23;;;;;;;;;;4983450;28;20121;-75
2023/10/30 12:11:44;;;;;;;1.40;1.30;;;;;;;;;;4988614;28;20076;-75
2023/10/30 12:14:13;;;;;;;5.88;1.23;;;;;;;;;;5000640;28;20030;-75
2023/10/30 12:16:46;;;;;;;1.98;1.42;;;;;;;;;;4999929;28;20557;-75
2023/10/30 12:19:11;;;;;;;1.60;1.50;;;;;;;;;;4988988;28;20128;-76
2023/10/30 12:21:36;;;;;;;1.70;1.42;;;;;;;;;;5015599;28;20472;-75
2023/10/30 12:24:02;;;;;;;1.08;1.08;;;;;;;;;;5024468;28;20030;-75
2023/10/30 12:26:27;;;;;;;3.58;1.20;;;;;;;;;;5022648;28;20095;-75
2023/10/30 12:28:59;;;;;;;4.35;1.40;;;;;;;;;;5020444;28;20040;-75
2023/10/30 12:31:28;;;;;;;3.63;1.42;;;;;;;;;;5010068;28;20096;-75
2023/10/30 12:34:06;;;;;;;1.55;1.25;;;;;;;;;;4977862;28;20037;-75
2023/10/30 12:36:32;;;;;;;5.50;1.30;;;;;;;;;;4998906;28;20216;-75
2023/10/30 12:39:21;;;;;;;1.85;1.17;;;;;;;;;;4981280;28;20357;-76
2023/10/30 12:41:51;;;;;;;3.78;1.70;;;;;;;;;;5013357;28;20096;-75
2023/10/30 12:44:17;;;;;;;1.83;1.73;;;;;;;;;;5013006;28;20038;-76
2023/10/30 12:46:43;;;;;;;2.35;1.70;;;;;;;;;;5015081;28;20444;-75
2023/10/30 12:49:08;;;;;;;5.40;1.88;;;;;;;;;;5011703;28;20111;-75
2023/10/30 12:51:35;;;;;;;3.72;1.75;;;;;;;;;;4994995;28;20034;-75
2023/10/30 12:54:01;;;;;;;3.05;1.90;;;;;;;;;;4996611;28;20505;-75
2023/10/30 12:56:27;;;;;;;4.72;1.88;;;;;;;;;;4997120;28;20034;-75
2023/10/30 12:59:00;;;;;;;5.75;2.30;;;;;;;;;;5000333;28;20193;-75
2023/10/30 13:01:31;;;;;;;10.93;2.20;;;;;;;;;;4980785;28;20037;-75
2023/10/30 13:03:56;;;;;;;2.53;2.33;;;;;;;;;;5014492;28;20046;-75
2023/10/30 13:06:21;;;;;;;5.28;1.88;;;;;;;;;;5010534;28;20048;-76
2023/10/30 13:08:47;;;;;;;3.33;2.45;;;;;;;;;;5009834;28;20305;-76
2023/10/30 13:11:13;;;;;;;6.93;3.08;;;;;;;;;;4997717;28;20297;-76
2023/10/30 13:13:39;;;;;;;4.80;2.70;;;;;;;;;;4997374;28;20456;-76
2023/10/30 13:16:04;;;;;;;8.52;2.50;;;;;;;;;;4999292;28;20042;-75
2023/10/30 13:18:29;;;;;;;4.20;2.40;;;;;;;;;;5001818;28;20058;-75
2023/10/30 13:20:55;;;;;;;7.38;2.80;;;;;;;;;;5002069;28;20032;-76
2023/10/30 13:23:23;;;;;;;3.65;3.10;;;;;;;;;;4996080;28;20510;-76
2023/10/30 13:25:51;;;;;;;5.35;2.47;;;;;;;;;;5000327;28;20529;-76
2023/10/30 13:28:18;;;;;;;2.72;2.30;;;;;;;;;;5000556;28;20065;-76
2023/10/30 13:30:48;;;;;;;5.20;2.80;;;;;;;;;;4982886;28;20190;-76
2023/10/30 13:33:13;;;;;;;3.25;2.92;;;;;;;;;;4998954;28;20022;-76
2023/10/30 13:35:39;;;;;;;6.78;3.25;;;;;;;;;;5001961;28;20041;-76
2023/10/30 13:38:04;;;;;;;5.03;3.10;;;;;;;;;;4999505;28;20037;-76
2023/10/30 13:40:29;;;;;;;7.45;3.65;;;;;;;;;;4998428;28;20050;-76
2023/10/30 13:42:59;;;;;;;12.25;3.45;;;;;;;;;;4998945;28;20322;-76
2023/10/30 13:45:25;;;;;;;5.95;3.60;;;;;;;;;;4993880;28;20030;-76
2023/10/30 13:47:50;;;;;;;3.88;2.28;;;;;;;;;;4983782;28;20024;-76
2023/10/30 13:50:15;;;;;;;2.70;2.20;;;;;;;;;;4990461;28;20087;-76
2023/10/30 13:52:41;;;;;;;10.45;7.00;;;;;;;;;;5011219;28;20501;-76
2023/10/30 13:55:06;;;;;;;7.03;4.93;;;;;;;;;;5009303;28;20103;-76
2023/10/30 13:57:32;;;;;;;5.53;2.10;;;;;;;;;;4993014;28;20052;-76
2023/10/30 13:59:57;;;;;;;3.45;2.05;;;;;;;;;;5012305;28;20034;-76
2023/10/30 14:02:22;;;;;;;4.55;2.35;;;;;;;;;;5008086;28;20091;-76
2023/10/30 14:04:47;;;;;;;4.25;2.17;;;;;;;;;;5006998;28;20037;-76
2023/10/30 14:07:13;;;;;;;5.75;3.00;;;;;;;;;;5009163;28;20041;-76
2023/10/30 14:09:38;;;;;;;2.50;2.25;;;;;;;;;;4988019;28;20034;-76
2023/10/30 14:12:04;;;;;;;5.47;2.17;;;;;;;;;;5011271;28;20112;-76
2023/10/30 14:14:29;;;;;;;3.03;2.53;;;;;;;;;;5010583;28;20036;-75
2023/10/30 14:16:54;;;;;;;3.05;2.40;;;;;;;;;;5011215;28;20042;-76
2023/10/30 14:19:20;;;;;;;2.33;2.10;;;;;;;;;;4993279;28;20509;-76
2023/10/30 14:21:45;;;;;;;4.35;2.40;;;;;;;;;;4993664;28;20570;-76
2023/10/30 14:24:11;;;;;;;3.30;2.33;;;;;;;;;;5010632;28;20029;-76
2023/10/30 14:26:38;;;;;;;4.10;2.60;;;;;;;;;;5013310;28;20146;-76
2023/10/30 14:29:04;;;;;;;8.07;2.67;;;;;;;;;;4994939;28;20040;-76
2023/10/30 14:31:30;;;;;;;5.88;4.38;;;;;;;;;;5011396;28;20038;-76
2023/10/30 14:33:55;;;;;;;3.90;2.53;;;;;;;;;;4994512;28;20041;-76
2023/10/30 14:36:22;;;;;;;3.17;2.42;;;;;;;;;;4988066;28;20057;-76
2023/10/30 14:38:47;;;;;;;9.50;4.75;;;;;;;;;;4991650;28;20030;-75
2023/10/30 14:41:13;;;;;;;8.88;2.90;;;;;;;;;;5013465;28;20041;-76